sensor_id;sensor_type;location;lat;lon;timestamp;P1;durP1;ratioP1;P2;durP2;ratioP2
9815;SDS011;4947;44.526;11.360;2022-08-14T00:00:21;1.98;;;1.77;;
9815;SDS011;4947;44.526;11.360;2022-08-14T00:02:49;2.92;;;2.20;;
9815;SDS011;4947;44.526;11.360;2022-08-14T00:05:18;2.72;;;2.22;;
9815;SDS011;4947;44.526;11.360;2022-08-14T00:07:47;3.15;;;2.35;;
9815;SDS011;4947;44.526;11.360;2022-08-14T00:10:16;3.25;;;2.20;;
9815;SDS011;4947;44.526;11.360;2022-08-14T00:12:46;3.63;;;2.10;;
9815;SDS011;4947;44.526;11.360;2022-08-14T00:15:18;2.95;;;2.00;;
9815;SDS011;4947;44.526;11.360;2022-08-14T00:17:49;2.35;;;1.60;;
9815;SDS011;4947;44.526;11.360;2022-08-14T00:20:18;2.35;;;1.83;;
9815;SDS011;4947;44.526;11.360;2022-08-14T00:22:48;1.88;;;1.77;;
9815;SDS011;4947;44.526;11.360;2022-08-14T00:25:15;2.78;;;2.38;;
9815;SDS011;4947;44.526;11.360;2022-08-14T00:27:43;2.97;;;2.40;;
9815;SDS011;4947;44.526;11.360;2022-08-14T00:30:12;4.13;;;2.58;;
9815;SDS011;4947;44.526;11.360;2022-08-14T00:32:40;2.90;;;2.38;;
9815;SDS011;4947;44.526;11.360;2022-08-14T00:35:10;2.47;;;2.05;;
9815;SDS011;4947;44.526;11.360;2022-08-14T00:37:39;3.22;;;1.70;;
9815;SDS011;4947;44.526;11.360;2022-08-14T00:40:08;3.33;;;1.80;;
9815;SDS011;4947;44.526;11.360;2022-08-14T00:42:38;2.05;;;1.73;;
9815;SDS011;4947;44.526;11.360;2022-08-14T00:45:08;2.78;;;1.88;;
9815;SDS011;4947;44.526;11.360;2022-08-14T00:47:37;1.83;;;1.73;;
9815;SDS011;4947;44.526;11.360;2022-08-14T00:50:05;2.25;;;1.80;;
9815;SDS011;4947;44.526;11.360;2022-08-14T00:52:36;3.92;;;1.77;;
9815;SDS011;4947;44.526;11.360;2022-08-14T00:55:04;3.28;;;2.15;;
9815;SDS011;4947;44.526;11.360;2022-08-14T00:57:34;2.28;;;2.03;;
9815;SDS011;4947;44.526;11.360;2022-08-14T01:00:04;2.38;;;1.80;;
9815;SDS011;4947;44.526;11.360;2022-08-14T01:02:35;2.65;;;1.90;;
9815;SDS011;4947;44.526;11.360;2022-08-14T01:05:03;2.50;;;2.03;;
9815;SDS011;4947;44.526;11.360;2022-08-14T01:07:32;3.55;;;2.10;;
9815;SDS011;4947;44.526;11.360;2022-08-14T01:10:02;3.25;;;2.10;;
9815;SDS011;4947;44.526;11.360;2022-08-14T01:12:31;6.00;;;2.20;;
9815;SDS011;4947;44.526;11.360;2022-08-14T01:15:00;5.85;;;2.22;;
9815;SDS011;4947;44.526;11.360;2022-08-14T01:17:28;2.97;;;1.80;;
9815;SDS011;4947;44.526;11.360;2022-08-14T01:20:10;2.28;;;2.05;;
9815;SDS011;4947;44.526;11.360;2022-08-14T01:22:56;2.97;;;2.28;;
9815;SDS011;4947;44.526;11.360;2022-08-14T01:25:24;2.20;;;2.00;;
9815;SDS011;4947;44.526;11.360;2022-08-14T01:27:52;4.88;;;2.00;;
9815;SDS011;4947;44.526;11.360;2022-08-14T01:30:22;3.35;;;2.00;;
9815;SDS011;4947;44.526;11.360;2022-08-14T01:32:51;2.42;;;2.00;;
9815;SDS011;4947;44.526;11.360;2022-08-14T01:35:19;2.20;;;1.80;;
9815;SDS011;4947;44.526;11.360;2022-08-14T01:37:47;2.05;;;1.83;;
9815;SDS011;4947;44.526;11.360;2022-08-14T01:40:16;2.13;;;1.90;;
9815;SDS011;4947;44.526;11.360;2022-08-14T01:42:47;2.20;;;1.90;;
9815;SDS011;4947;44.526;11.360;2022-08-14T01:45:15;4.97;;;2.13;;
9815;SDS011;4947;44.526;11.360;2022-08-14T01:47:42;4.45;;;2.00;;
9815;SDS011;4947;44.526;11.360;2022-08-14T01:50:09;3.33;;;1.90;;
9815;SDS011;4947;44.526;11.360;2022-08-14T01:52:37;3.42;;;1.88;;
9815;SDS011;4947;44.526;11.360;2022-08-14T01:55:06;2.83;;;1.85;;
9815;SDS011;4947;44.526;11.360;2022-08-14T01:57:38;3.70;;;2.13;;
9815;SDS011;4947;44.526;11.360;2022-08-14T02:00:10;3.55;;;2.03;;
9815;SDS011;4947;44.526;11.360;2022-08-14T02:02:40;2.80;;;2.30;;
9815;SDS011;4947;44.526;11.360;2022-08-14T02:05:10;2.13;;;2.00;;
9815;SDS011;4947;44.526;11.360;2022-08-14T02:07:38;1.77;;;1.67;;
9815;SDS011;4947;44.526;11.360;2022-08-14T02:10:08;3.00;;;1.75;;
9815;SDS011;4947;44.526;11.360;2022-08-14T02:12:38;1.67;;;1.58;;
9815;SDS011;4947;44.526;11.360;2022-08-14T02:15:06;2.13;;;1.90;;
9815;SDS011;4947;44.526;11.360;2022-08-14T02:17:35;2.28;;;2.08;;
9815;SDS011;4947;44.526;11.360;2022-08-14T02:20:03;2.20;;;2.00;;
9815;SDS011;4947;44.526;11.360;2022-08-14T02:22:32;2.13;;;1.92;;
9815;SDS011;4947;44.526;11.360;2022-08-14T02:25:00;4.78;;;2.80;;
9815;SDS011;4947;44.526;11.360;2022-08-14T02:27:27;2.00;;;1.80;;
9815;SDS011;4947;44.526;11.360;2022-08-14T02:29:56;3.13;;;2.10;;
9815;SDS011;4947;44.526;11.360;2022-08-14T02:32:24;4.03;;;2.33;;
9815;SDS011;4947;44.526;11.360;2022-08-14T02:34:52;5.13;;;2.40;;
9815;SDS011;4947;44.526;11.360;2022-08-14T02:37:19;5.28;;;2.58;;
9815;SDS011;4947;44.526;11.360;2022-08-14T02:39:51;3.58;;;2.28;;
9815;SDS011;4947;44.526;11.360;2022-08-14T02:42:18;5.85;;;2.20;;
9815;SDS011;4947;44.526;11.360;2022-08-14T02:44:46;3.63;;;2.28;;
9815;SDS011;4947;44.526;11.360;2022-08-14T02:47:16;4.10;;;2.22;;
9815;SDS011;4947;44.526;11.360;2022-08-14T02:49:44;5.10;;;2.35;;
9815;SDS011;4947;44.526;11.360;2022-08-14T02:52:11;3.50;;;2.30;;
9815;SDS011;4947;44.526;11.360;2022-08-14T02:54:39;2.08;;;1.88;;
9815;SDS011;4947;44.526;11.360;2022-08-14T02:57:07;3.80;;;2.10;;
9815;SDS011;4947;44.526;11.360;2022-08-14T02:59:34;2.17;;;1.95;;
9815;SDS011;4947;44.526;11.360;2022-08-14T03:02:03;4.32;;;2.35;;
9815;SDS011;4947;44.526;11.360;2022-08-14T03:04:33;2.10;;;1.85;;
9815;SDS011;4947;44.526;11.360;2022-08-14T03:07:00;2.35;;;1.85;;
9815;SDS011;4947;44.526;11.360;2022-08-14T03:09:28;3.50;;;2.00;;
9815;SDS011;4947;44.526;11.360;2022-08-14T03:11:57;3.35;;;2.53;;
9815;SDS011;4947;44.526;11.360;2022-08-14T03:14:26;2.33;;;1.80;;
9815;SDS011;4947;44.526;11.360;2022-08-14T03:16:54;2.55;;;1.80;;
9815;SDS011;4947;44.526;11.360;2022-08-14T03:19:21;4.15;;;1.88;;
9815;SDS011;4947;44.526;11.360;2022-08-14T03:21:50;2.92;;;2.10;;
9815;SDS011;4947;44.526;11.360;2022-08-14T03:24:19;3.65;;;2.10;;
9815;SDS011;4947;44.526;11.360;2022-08-14T03:26:47;6.10;;;2.05;;
9815;SDS011;4947;44.526;11.360;2022-08-14T03:29:17;2.50;;;2.30;;
9815;SDS011;4947;44.526;11.360;2022-08-14T03:31:46;4.38;;;2.33;;
9815;SDS011;4947;44.526;11.360;2022-08-14T03:34:15;2.78;;;1.98;;
9815;SDS011;4947;44.526;11.360;2022-08-14T03:36:43;4.65;;;2.00;;
9815;SDS011;4947;44.526;11.360;2022-08-14T03:39:12;2.72;;;2.15;;
9815;SDS011;4947;44.526;11.360;2022-08-14T03:41:39;2.70;;;1.98;;
9815;SDS011;4947;44.526;11.360;2022-08-14T03:44:07;4.22;;;2.35;;
9815;SDS011;4947;44.526;11.360;2022-08-14T03:46:35;2.85;;;2.08;;
9815;SDS011;4947;44.526;11.360;2022-08-14T03:49:07;5.35;;;2.00;;
9815;SDS011;4947;44.526;11.360;2022-08-14T03:51:35;3.97;;;2.00;;
9815;SDS011;4947;44.526;11.360;2022-08-14T03:54:03;3.72;;;2.00;;
9815;SDS011;4947;44.526;11.360;2022-08-14T03:56:34;3.95;;;1.95;;
9815;SDS011;4947;44.526;11.360;2022-08-14T03:59:02;2.90;;;2.00;;
9815;SDS011;4947;44.526;11.360;2022-08-14T04:01:36;2.92;;;2.05;;
9815;SDS011;4947;44.526;11.360;2022-08-14T04:04:05;3.10;;;1.70;;
9815;SDS011;4947;44.526;11.360;2022-08-14T04:06:34;2.38;;;1.90;;
9815;SDS011;4947;44.526;11.360;2022-08-14T04:09:03;2.00;;;1.73;;
9815;SDS011;4947;44.526;11.360;2022-08-14T04:11:31;2.83;;;2.25;;
9815;SDS011;4947;44.526;11.360;2022-08-14T04:14:00;3.42;;;2.08;;
9815;SDS011;4947;44.526;11.360;2022-08-14T04:16:28;2.83;;;2.08;;
9815;SDS011;4947;44.526;11.360;2022-08-14T04:18:56;3.88;;;2.75;;
9815;SDS011;4947;44.526;11.360;2022-08-14T04:21:28;4.18;;;2.95;;
9815;SDS011;4947;44.526;11.360;2022-08-14T04:23:57;4.13;;;2.13;;
9815;SDS011;4947;44.526;11.360;2022-08-14T04:26:26;4.28;;;2.28;;
9815;SDS011;4947;44.526;11.360;2022-08-14T04:28:56;5.05;;;2.13;;
9815;SDS011;4947;44.526;11.360;2022-08-14T04:31:24;1.67;;;1.58;;
9815;SDS011;4947;44.526;11.360;2022-08-14T04:33:52;3.17;;;2.10;;
9815;SDS011;4947;44.526;11.360;2022-08-14T04:36:20;3.25;;;1.60;;
9815;SDS011;4947;44.526;11.360;2022-08-14T04:38:48;2.45;;;2.25;;
9815;SDS011;4947;44.526;11.360;2022-08-14T04:41:32;2.80;;;1.80;;
9815;SDS011;4947;44.526;11.360;2022-08-14T04:44:18;4.72;;;2.05;;
9815;SDS011;4947;44.526;11.360;2022-08-14T04:46:46;2.10;;;1.90;;
9815;SDS011;4947;44.526;11.360;2022-08-14T04:49:27;4.20;;;1.90;;
9815;SDS011;4947;44.526;11.360;2022-08-14T04:51:55;2.65;;;1.80;;
9815;SDS011;4947;44.526;11.360;2022-08-14T04:54:24;2.30;;;2.10;;
9815;SDS011;4947;44.526;11.360;2022-08-14T04:56:52;3.95;;;2.22;;
9815;SDS011;4947;44.526;11.360;2022-08-14T04:59:22;4.43;;;2.00;;
9815;SDS011;4947;44.526;11.360;2022-08-14T05:01:51;2.42;;;1.90;;
9815;SDS011;4947;44.526;11.360;2022-08-14T05:04:19;3.92;;;2.03;;
9815;SDS011;4947;44.526;11.360;2022-08-14T05:06:48;3.50;;;1.85;;
9815;SDS011;4947;44.526;11.360;2022-08-14T05:09:16;3.05;;;2.25;;
9815;SDS011;4947;44.526;11.360;2022-08-14T05:11:44;3.58;;;2.22;;
9815;SDS011;4947;44.526;11.360;2022-08-14T05:14:13;2.97;;;1.95;;
9815;SDS011;4947;44.526;11.360;2022-08-14T05:16:44;7.53;;;1.88;;
9815;SDS011;4947;44.526;11.360;2022-08-14T05:19:12;3.25;;;2.08;;
9815;SDS011;4947;44.526;11.360;2022-08-14T05:21:39;6.82;;;1.92;;
9815;SDS011;4947;44.526;11.360;2022-08-14T05:24:07;4.35;;;2.00;;
9815;SDS011;4947;44.526;11.360;2022-08-14T05:26:36;2.95;;;2.00;;
9815;SDS011;4947;44.526;11.360;2022-08-14T05:29:05;1.83;;;1.67;;
9815;SDS011;4947;44.526;11.360;2022-08-14T05:31:34;2.42;;;1.98;;
9815;SDS011;4947;44.526;11.360;2022-08-14T05:34:05;3.83;;;1.98;;
9815;SDS011;4947;44.526;11.360;2022-08-14T05:36:33;2.60;;;1.60;;
9815;SDS011;4947;44.526;11.360;2022-08-14T05:39:02;3.05;;;1.90;;
9815;SDS011;4947;44.526;11.360;2022-08-14T05:41:30;2.53;;;1.80;;
9815;SDS011;4947;44.526;11.360;2022-08-14T05:43:58;2.28;;;1.88;;
9815;SDS011;4947;44.526;11.360;2022-08-14T05:46:26;2.97;;;1.83;;
9815;SDS011;4947;44.526;11.360;2022-08-14T05:48:55;2.47;;;1.83;;
9815;SDS011;4947;44.526;11.360;2022-08-14T05:51:25;2.00;;;1.60;;
9815;SDS011;4947;44.526;11.360;2022-08-14T05:53:54;2.45;;;2.20;;
9815;SDS011;4947;44.526;11.360;2022-08-14T05:56:22;2.95;;;2.10;;
9815;SDS011;4947;44.526;11.360;2022-08-14T05:58:51;3.72;;;1.92;;
9815;SDS011;4947;44.526;11.360;2022-08-14T06:01:18;3.50;;;1.77;;
9815;SDS011;4947;44.526;11.360;2022-08-14T06:03:46;1.77;;;1.55;;
9815;SDS011;4947;44.526;11.360;2022-08-14T06:06:13;4.28;;;1.65;;
9815;SDS011;4947;44.526;11.360;2022-08-14T06:08:42;3.67;;;2.10;;
9815;SDS011;4947;44.526;11.360;2022-08-14T06:11:10;2.53;;;1.90;;
9815;SDS011;4947;44.526;11.360;2022-08-14T06:13:38;2.10;;;1.58;;
9815;SDS011;4947;44.526;11.360;2022-08-14T06:16:07;2.65;;;1.63;;
9815;SDS011;4947;44.526;11.360;2022-08-14T06:18:34;4.53;;;1.83;;
9815;SDS011;4947;44.526;11.360;2022-08-14T06:21:02;4.68;;;2.00;;
9815;SDS011;4947;44.526;11.360;2022-08-14T06:23:31;3.75;;;1.67;;
9815;SDS011;4947;44.526;11.360;2022-08-14T06:26:00;1.98;;;1.60;;
9815;SDS011;4947;44.526;11.360;2022-08-14T06:28:28;2.00;;;1.77;;
9815;SDS011;4947;44.526;11.360;2022-08-14T06:30:56;2.60;;;1.90;;
9815;SDS011;4947;44.526;11.360;2022-08-14T06:33:23;3.60;;;1.92;;
9815;SDS011;4947;44.526;11.360;2022-08-14T06:35:51;3.33;;;1.73;;
9815;SDS011;4947;44.526;11.360;2022-08-14T06:38:19;3.22;;;1.58;;
9815;SDS011;4947;44.526;11.360;2022-08-14T06:40:47;1.83;;;1.52;;
9815;SDS011;4947;44.526;11.360;2022-08-14T06:43:17;4.18;;;1.73;;
9815;SDS011;4947;44.526;11.360;2022-08-14T06:45:46;2.38;;;1.77;;
9815;SDS011;4947;44.526;11.360;2022-08-14T06:48:15;1.70;;;1.60;;
9815;SDS011;4947;44.526;11.360;2022-08-14T06:50:45;2.88;;;1.63;;
9815;SDS011;4947;44.526;11.360;2022-08-14T06:53:13;2.35;;;1.67;;
9815;SDS011;4947;44.526;11.360;2022-08-14T06:55:44;1.63;;;1.48;;
9815;SDS011;4947;44.526;11.360;2022-08-14T06:58:13;2.75;;;1.48;;
9815;SDS011;4947;44.526;11.360;2022-08-14T07:00:43;1.95;;;1.60;;
9815;SDS011;4947;44.526;11.360;2022-08-14T07:03:25;1.90;;;1.60;;
9815;SDS011;4947;44.526;11.360;2022-08-14T07:06:11;1.60;;;1.50;;
9815;SDS011;4947;44.526;11.360;2022-08-14T07:08:38;3.00;;;1.55;;
9815;SDS011;4947;44.526;11.360;2022-08-14T07:11:07;4.70;;;2.10;;
9815;SDS011;4947;44.526;11.360;2022-08-14T07:13:35;1.88;;;1.63;;
9815;SDS011;4947;44.526;11.360;2022-08-14T07:16:05;1.63;;;1.50;;
9815;SDS011;4947;44.526;11.360;2022-08-14T07:18:33;3.35;;;1.58;;
9815;SDS011;4947;44.526;11.360;2022-08-14T07:21:02;1.45;;;1.35;;
9815;SDS011;4947;44.526;11.360;2022-08-14T07:23:31;3.38;;;1.60;;
9815;SDS011;4947;44.526;11.360;2022-08-14T07:25:59;4.93;;;1.85;;
9815;SDS011;4947;44.526;11.360;2022-08-14T07:28:29;1.70;;;1.48;;
9815;SDS011;4947;44.526;11.360;2022-08-14T07:30:59;1.58;;;1.42;;
9815;SDS011;4947;44.526;11.360;2022-08-14T07:33:30;2.92;;;1.65;;
9815;SDS011;4947;44.526;11.360;2022-08-14T07:36:01;4.82;;;1.50;;
9815;SDS011;4947;44.526;11.360;2022-08-14T07:38:30;1.95;;;1.63;;
9815;SDS011;4947;44.526;11.360;2022-08-14T07:40:57;2.08;;;1.50;;
9815;SDS011;4947;44.526;11.360;2022-08-14T07:43:25;2.60;;;1.67;;
9815;SDS011;4947;44.526;11.360;2022-08-14T07:45:53;1.75;;;1.48;;
9815;SDS011;4947;44.526;11.360;2022-08-14T07:48:20;2.83;;;1.60;;
9815;SDS011;4947;44.526;11.360;2022-08-14T07:50:49;2.63;;;1.48;;
9815;SDS011;4947;44.526;11.360;2022-08-14T07:53:18;1.90;;;1.40;;
9815;SDS011;4947;44.526;11.360;2022-08-14T07:55:46;1.70;;;1.52;;
9815;SDS011;4947;44.526;11.360;2022-08-14T07:58:14;4.25;;;1.48;;
9815;SDS011;4947;44.526;11.360;2022-08-14T08:00:42;1.45;;;1.35;;
9815;SDS011;4947;44.526;11.360;2022-08-14T08:03:10;1.73;;;1.63;;
9815;SDS011;4947;44.526;11.360;2022-08-14T08:05:39;1.70;;;1.60;;
9815;SDS011;4947;44.526;11.360;2022-08-14T08:08:08;1.83;;;1.40;;
9815;SDS011;4947;44.526;11.360;2022-08-14T08:10:37;1.73;;;1.63;;
9815;SDS011;4947;44.526;11.360;2022-08-14T08:13:06;1.92;;;1.45;;
9815;SDS011;4947;44.526;11.360;2022-08-14T08:15:37;3.95;;;1.30;;
9815;SDS011;4947;44.526;11.360;2022-08-14T08:18:05;1.88;;;1.50;;
9815;SDS011;4947;44.526;11.360;2022-08-14T08:20:35;3.05;;;1.50;;
9815;SDS011;4947;44.526;11.360;2022-08-14T08:23:04;1.42;;;1.33;;
9815;SDS011;4947;44.526;11.360;2022-08-14T08:25:34;4.10;;;1.70;;
9815;SDS011;4947;44.526;11.360;2022-08-14T08:28:05;4.53;;;1.60;;
9815;SDS011;4947;44.526;11.360;2022-08-14T08:30:35;2.08;;;1.20;;
9815;SDS011;4947;44.526;11.360;2022-08-14T08:33:03;1.52;;;1.30;;
9815;SDS011;4947;44.526;11.360;2022-08-14T08:35:32;4.07;;;1.63;;
9815;SDS011;4947;44.526;11.360;2022-08-14T08:38:02;1.48;;;1.38;;
9815;SDS011;4947;44.526;11.360;2022-08-14T08:40:34;1.58;;;1.48;;
9815;SDS011;4947;44.526;11.360;2022-08-14T08:43:06;3.60;;;1.38;;
9815;SDS011;4947;44.526;11.360;2022-08-14T08:45:35;1.45;;;1.35;;
9815;SDS011;4947;44.526;11.360;2022-08-14T08:48:02;2.40;;;1.75;;
9815;SDS011;4947;44.526;11.360;2022-08-14T08:50:31;3.20;;;1.52;;
9815;SDS011;4947;44.526;11.360;2022-08-14T08:53:01;2.05;;;1.40;;
9815;SDS011;4947;44.526;11.360;2022-08-14T08:55:31;1.42;;;1.33;;
9815;SDS011;4947;44.526;11.360;2022-08-14T08:58:02;1.85;;;1.60;;
9815;SDS011;4947;44.526;11.360;2022-08-14T09:00:33;1.42;;;1.33;;
9815;SDS011;4947;44.526;11.360;2022-08-14T09:03:03;1.52;;;1.42;;
9815;SDS011;4947;44.526;11.360;2022-08-14T09:05:34;1.75;;;1.50;;
9815;SDS011;4947;44.526;11.360;2022-08-14T09:08:12;1.70;;;1.60;;
9815;SDS011;4947;44.526;11.360;2022-08-14T09:10:43;3.42;;;1.40;;
9815;SDS011;4947;44.526;11.360;2022-08-14T09:13:11;1.27;;;1.15;;
9815;SDS011;4947;44.526;11.360;2022-08-14T09:15:39;1.67;;;1.33;;
9815;SDS011;4947;44.526;11.360;2022-08-14T09:18:09;2.95;;;1.55;;
9815;SDS011;4947;44.526;11.360;2022-08-14T09:20:37;1.63;;;1.40;;
9815;SDS011;4947;44.526;11.360;2022-08-14T09:23:06;1.73;;;1.63;;
9815;SDS011;4947;44.526;11.360;2022-08-14T09:25:35;3.50;;;1.60;;
9815;SDS011;4947;44.526;11.360;2022-08-14T09:28:04;2.58;;;1.42;;
9815;SDS011;4947;44.526;11.360;2022-08-14T09:30:33;2.65;;;1.40;;
9815;SDS011;4947;44.526;11.360;2022-08-14T09:33:06;1.30;;;1.20;;
9815;SDS011;4947;44.526;11.360;2022-08-14T09:35:51;6.43;;;1.40;;
9815;SDS011;4947;44.526;11.360;2022-08-14T09:38:36;4.50;;;1.70;;
9815;SDS011;4947;44.526;11.360;2022-08-14T09:41:12;2.28;;;1.67;;
9815;SDS011;4947;44.526;11.360;2022-08-14T09:44:04;3.13;;;1.40;;
9815;SDS011;4947;44.526;11.360;2022-08-14T09:46:33;1.50;;;1.40;;
9815;SDS011;4947;44.526;11.360;2022-08-14T09:49:02;3.85;;;1.60;;
9815;SDS011;4947;44.526;11.360;2022-08-14T09:51:32;2.13;;;1.38;;
9815;SDS011;4947;44.526;11.360;2022-08-14T09:54:06;1.52;;;1.42;;
9815;SDS011;4947;44.526;11.360;2022-08-14T09:56:43;1.80;;;1.17;;
9815;SDS011;4947;44.526;11.360;2022-08-14T09:59:12;3.72;;;1.45;;
9815;SDS011;4947;44.526;11.360;2022-08-14T10:01:42;3.05;;;1.65;;
9815;SDS011;4947;44.526;11.360;2022-08-14T10:04:17;1.98;;;1.50;;
9815;SDS011;4947;44.526;11.360;2022-08-14T10:06:45;3.95;;;1.60;;
9815;SDS011;4947;44.526;11.360;2022-08-14T10:09:13;2.42;;;1.48;;
9815;SDS011;4947;44.526;11.360;2022-08-14T10:11:41;4.10;;;1.45;;
9815;SDS011;4947;44.526;11.360;2022-08-14T10:14:22;1.83;;;1.63;;
9815;SDS011;4947;44.526;11.360;2022-08-14T10:16:52;3.00;;;1.70;;
9815;SDS011;4947;44.526;11.360;2022-08-14T10:19:22;3.92;;;1.65;;
9815;SDS011;4947;44.526;11.360;2022-08-14T10:21:56;3.92;;;1.70;;
9815;SDS011;4947;44.526;11.360;2022-08-14T10:24:26;1.50;;;1.40;;
9815;SDS011;4947;44.526;11.360;2022-08-14T10:26:55;1.92;;;1.40;;
9815;SDS011;4947;44.526;11.360;2022-08-14T10:29:32;3.28;;;1.33;;
9815;SDS011;4947;44.526;11.360;2022-08-14T10:32:02;1.73;;;1.50;;
9815;SDS011;4947;44.526;11.360;2022-08-14T10:34:31;2.30;;;1.65;;
9815;SDS011;4947;44.526;11.360;2022-08-14T10:37:01;1.60;;;1.50;;
9815;SDS011;4947;44.526;11.360;2022-08-14T10:39:31;1.65;;;1.55;;
9815;SDS011;4947;44.526;11.360;2022-08-14T10:42:02;7.25;;;1.50;;
9815;SDS011;4947;44.526;11.360;2022-08-14T10:44:33;1.58;;;1.38;;
9815;SDS011;4947;44.526;11.360;2022-08-14T10:47:03;4.78;;;1.67;;
9815;SDS011;4947;44.526;11.360;2022-08-14T10:49:35;1.50;;;1.40;;
9815;SDS011;4947;44.526;11.360;2022-08-14T10:52:03;4.57;;;1.50;;
9815;SDS011;4947;44.526;11.360;2022-08-14T10:54:34;2.13;;;1.50;;
9815;SDS011;4947;44.526;11.360;2022-08-14T10:57:15;4.55;;;1.60;;
9815;SDS011;4947;44.526;11.360;2022-08-14T10:59:46;1.88;;;1.50;;
9815;SDS011;4947;44.526;11.360;2022-08-14T11:02:16;1.70;;;1.50;;
9815;SDS011;4947;44.526;11.360;2022-08-14T11:04:56;2.22;;;1.40;;
9815;SDS011;4947;44.526;11.360;2022-08-14T11:07:24;2.70;;;1.30;;
9815;SDS011;4947;44.526;11.360;2022-08-14T11:09:52;1.60;;;1.10;;
9815;SDS011;4947;44.526;11.360;2022-08-14T11:12:21;1.63;;;1.52;;
9815;SDS011;4947;44.526;11.360;2022-08-14T11:14:52;2.72;;;1.60;;
9815;SDS011;4947;44.526;11.360;2022-08-14T11:17:21;3.22;;;1.65;;
9815;SDS011;4947;44.526;11.360;2022-08-14T11:19:50;1.55;;;1.38;;
9815;SDS011;4947;44.526;11.360;2022-08-14T11:22:21;1.45;;;1.35;;
9815;SDS011;4947;44.526;11.360;2022-08-14T11:24:51;1.77;;;1.63;;
9815;SDS011;4947;44.526;11.360;2022-08-14T11:27:20;2.60;;;1.70;;
9815;SDS011;4947;44.526;11.360;2022-08-14T11:29:49;2.67;;;1.58;;
9815;SDS011;4947;44.526;11.360;2022-08-14T11:32:18;1.80;;;1.42;;
9815;SDS011;4947;44.526;11.360;2022-08-14T11:34:46;1.58;;;1.40;;
9815;SDS011;4947;44.526;11.360;2022-08-14T11:37:13;3.42;;;1.10;;
9815;SDS011;4947;44.526;11.360;2022-08-14T11:39:42;2.55;;;1.52;;
9815;SDS011;4947;44.526;11.360;2022-08-14T11:42:18;2.22;;;1.58;;
9815;SDS011;4947;44.526;11.360;2022-08-14T11:44:46;1.60;;;1.50;;
9815;SDS011;4947;44.526;11.360;2022-08-14T11:47:14;4.43;;;1.50;;
9815;SDS011;4947;44.526;11.360;2022-08-14T11:49:45;2.10;;;1.58;;
9815;SDS011;4947;44.526;11.360;2022-08-14T11:52:13;2.17;;;1.65;;
9815;SDS011;4947;44.526;11.360;2022-08-14T11:54:42;2.30;;;1.55;;
9815;SDS011;4947;44.526;11.360;2022-08-14T11:57:13;1.70;;;1.48;;
9815;SDS011;4947;44.526;11.360;2022-08-14T11:59:41;2.05;;;1.30;;
9815;SDS011;4947;44.526;11.360;2022-08-14T12:02:10;4.93;;;1.50;;
9815;SDS011;4947;44.526;11.360;2022-08-14T12:04:48;2.25;;;1.30;;
9815;SDS011;4947;44.526;11.360;2022-08-14T12:07:16;6.68;;;1.60;;
9815;SDS011;4947;44.526;11.360;2022-08-14T12:09:45;3.45;;;1.50;;
9815;SDS011;4947;44.526;11.360;2022-08-14T12:12:18;2.05;;;1.38;;
9815;SDS011;4947;44.526;11.360;2022-08-14T12:14:47;1.50;;;1.38;;
9815;SDS011;4947;44.526;11.360;2022-08-14T12:17:17;1.50;;;1.38;;
9815;SDS011;4947;44.526;11.360;2022-08-14T12:19:46;1.55;;;1.45;;
9815;SDS011;4947;44.526;11.360;2022-08-14T12:22:16;4.22;;;1.90;;
9815;SDS011;4947;44.526;11.360;2022-08-14T12:24:49;2.10;;;1.48;;
9815;SDS011;4947;44.526;11.360;2022-08-14T12:27:16;2.72;;;1.50;;
9815;SDS011;4947;44.526;11.360;2022-08-14T12:29:50;1.70;;;1.60;;
9815;SDS011;4947;44.526;11.360;2022-08-14T12:32:18;1.67;;;1.58;;
9815;SDS011;4947;44.526;11.360;2022-08-14T12:34:52;3.95;;;1.50;;
9815;SDS011;4947;44.526;11.360;2022-08-14T12:37:27;1.45;;;1.35;;
9815;SDS011;4947;44.526;11.360;2022-08-14T12:40:07;3.25;;;1.58;;
9815;SDS011;4947;44.526;11.360;2022-08-14T12:42:36;2.28;;;1.42;;
9815;SDS011;4947;44.526;11.360;2022-08-14T12:45:04;2.30;;;2.05;;
9815;SDS011;4947;44.526;11.360;2022-08-14T12:47:35;1.52;;;1.40;;
9815;SDS011;4947;44.526;11.360;2022-08-14T12:50:05;1.75;;;1.25;;
9815;SDS011;4947;44.526;11.360;2022-08-14T12:52:34;1.52;;;1.33;;
9815;SDS011;4947;44.526;11.360;2022-08-14T12:55:06;1.88;;;1.35;;
9815;SDS011;4947;44.526;11.360;2022-08-14T12:57:36;1.40;;;1.30;;
9815;SDS011;4947;44.526;11.360;2022-08-14T13:00:09;1.50;;;1.40;;
9815;SDS011;4947;44.526;11.360;2022-08-14T13:02:39;4.13;;;1.42;;
9815;SDS011;4947;44.526;11.360;2022-08-14T13:05:09;1.83;;;1.40;;
9815;SDS011;4947;44.526;11.360;2022-08-14T13:07:39;3.03;;;1.48;;
9815;SDS011;4947;44.526;11.360;2022-08-14T13:10:08;2.55;;;1.33;;
9815;SDS011;4947;44.526;11.360;2022-08-14T13:12:38;2.28;;;1.45;;
9815;SDS011;4947;44.526;11.360;2022-08-14T13:15:07;2.65;;;1.70;;
9815;SDS011;4947;44.526;11.360;2022-08-14T13:17:38;1.67;;;1.52;;
9815;SDS011;4947;44.526;11.360;2022-08-14T13:20:10;1.60;;;1.40;;
9815;SDS011;4947;44.526;11.360;2022-08-14T13:22:39;1.58;;;1.48;;
9815;SDS011;4947;44.526;11.360;2022-08-14T13:25:09;1.33;;;1.20;;
9815;SDS011;4947;44.526;11.360;2022-08-14T13:27:38;2.30;;;1.50;;
9815;SDS011;4947;44.526;11.360;2022-08-14T13:30:09;2.80;;;1.50;;
9815;SDS011;4947;44.526;11.360;2022-08-14T13:32:38;1.52;;;1.40;;
9815;SDS011;4947;44.526;11.360;2022-08-14T13:35:10;1.52;;;1.42;;
9815;SDS011;4947;44.526;11.360;2022-08-14T13:37:40;1.55;;;1.33;;
9815;SDS011;4947;44.526;11.360;2022-08-14T13:40:09;2.05;;;1.67;;
9815;SDS011;4947;44.526;11.360;2022-08-14T13:42:40;1.75;;;1.58;;
9815;SDS011;4947;44.526;11.360;2022-08-14T13:45:10;2.15;;;1.30;;
9815;SDS011;4947;44.526;11.360;2022-08-14T13:47:39;1.85;;;1.38;;
9815;SDS011;4947;44.526;11.360;2022-08-14T13:50:11;1.58;;;1.20;;
9815;SDS011;4947;44.526;11.360;2022-08-14T13:52:42;3.90;;;1.33;;
9815;SDS011;4947;44.526;11.360;2022-08-14T13:55:18;3.28;;;1.70;;
9815;SDS011;4947;44.526;11.360;2022-08-14T13:57:47;4.95;;;1.52;;
9815;SDS011;4947;44.526;11.360;2022-08-14T14:00:15;1.60;;;1.30;;
9815;SDS011;4947;44.526;11.360;2022-08-14T14:02:44;1.88;;;1.42;;
9815;SDS011;4947;44.526;11.360;2022-08-14T14:05:15;2.08;;;1.70;;
9815;SDS011;4947;44.526;11.360;2022-08-14T14:07:45;1.60;;;1.50;;
9815;SDS011;4947;44.526;11.360;2022-08-14T14:10:14;1.60;;;1.40;;
9815;SDS011;4947;44.526;11.360;2022-08-14T14:12:42;1.55;;;1.45;;
9815;SDS011;4947;44.526;11.360;2022-08-14T14:15:11;2.53;;;1.42;;
9815;SDS011;4947;44.526;11.360;2022-08-14T14:17:40;3.75;;;1.67;;
9815;SDS011;4947;44.526;11.360;2022-08-14T14:20:12;2.00;;;1.17;;
9815;SDS011;4947;44.526;11.360;2022-08-14T14:22:42;1.63;;;1.33;;
9815;SDS011;4947;44.526;11.360;2022-08-14T14:25:12;2.97;;;1.35;;
9815;SDS011;4947;44.526;11.360;2022-08-14T14:27:40;2.55;;;1.42;;
9815;SDS011;4947;44.526;11.360;2022-08-14T14:30:10;1.42;;;1.30;;
9815;SDS011;4947;44.526;11.360;2022-08-14T14:32:39;2.45;;;1.50;;
9815;SDS011;4947;44.526;11.360;2022-08-14T14:35:09;1.35;;;1.25;;
9815;SDS011;4947;44.526;11.360;2022-08-14T14:37:40;1.30;;;1.20;;
9815;SDS011;4947;44.526;11.360;2022-08-14T14:40:09;1.38;;;1.27;;
9815;SDS011;4947;44.526;11.360;2022-08-14T14:42:42;2.75;;;1.40;;
9815;SDS011;4947;44.526;11.360;2022-08-14T14:45:13;4.28;;;1.60;;
9815;SDS011;4947;44.526;11.360;2022-08-14T14:47:43;1.67;;;1.40;;
9815;SDS011;4947;44.526;11.360;2022-08-14T14:50:13;1.30;;;1.20;;
9815;SDS011;4947;44.526;11.360;2022-08-14T14:52:43;4.93;;;1.50;;
9815;SDS011;4947;44.526;11.360;2022-08-14T14:55:11;1.75;;;1.65;;
9815;SDS011;4947;44.526;11.360;2022-08-14T14:57:39;4.20;;;1.20;;
9815;SDS011;4947;44.526;11.360;2022-08-14T15:00:09;1.67;;;1.42;;
9815;SDS011;4947;44.526;11.360;2022-08-14T15:02:39;2.90;;;1.58;;
9815;SDS011;4947;44.526;11.360;2022-08-14T15:05:09;1.60;;;1.50;;
9815;SDS011;4947;44.526;11.360;2022-08-14T15:07:38;3.33;;;1.23;;
9815;SDS011;4947;44.526;11.360;2022-08-14T15:10:09;3.67;;;1.58;;
9815;SDS011;4947;44.526;11.360;2022-08-14T15:12:38;2.15;;;1.55;;
9815;SDS011;4947;44.526;11.360;2022-08-14T15:15:06;1.42;;;1.27;;